Amherst, Ohio
Current Conditions -  °F | °C
As of 3:53 PM on Thursday 23 Oct 2014 (Local Time) from KLPR Reporting Station
Clear Clear  
Wind Chill: 55°   Ceiling: Unl
Heat Index: 55°   Visibility: 10mi
Dew Point: 43°   Wind: 10mph
Humidity: 64%   Direction: 360°N
Pressure: 30.16"   Gusts: NA
Location:  41.41°N, 82.24°W
Report Text: KLPR 231953Z AUTO 36009KT 10SM CLR 13/06 A3016 RMK AO2 SLP215 T01280061 TSNO $
Loading
Personal Weather Stations






























Interactive Weather Map
Tropical Storm Tracking
New forecast layout! Learn more

10-Day Weather Forecast

Advertisements
Track Severe Weather on mobile